Time;durP1;ratioP1;P1;durP2;ratioP2;P2;SDS_P1;SDS_P2;PMS_P1;PMS_P2;Temp;Humidity;BMP_temperature;BMP_pressure;BME280_temperature;BME280_humidity;BME280_pressure;Samples;Min_cycle;Max_cycle;Signal;HPM_P1;HPM_P2
2023/08/29 01:01:05;;;;;;;;;;;26.00;53.10;;;;;;2951786;19;50739;-90
2023/08/29 01:02:05;;;;;;;;;;;24.30;52.20;;;;;;3066987;19;4988;-88
2023/08/29 01:03:06;;;;;;;;;;;24.30;52.10;;;;;;3067457;19;4663;-81
2023/08/29 01:04:08;;;;;;;;;;;24.20;52.10;;;;;;3067098;19;958;-88
2023/08/29 01:05:09;;;;;;;;;;;24.30;52.10;;;;;;3066267;19;4595;-89
2023/08/29 01:06:11;;;;;;;;;;;24.30;52.10;;;;;;3066010;19;5182;-90
2023/08/29 01:07:12;;;;;;;;;;;24.30;52.20;;;;;;3066264;19;5296;-88
2023/08/29 01:08:12;;;;;;;;;;;24.30;52.10;;;;;;3065773;19;4701;-88
2023/08/29 01:09:16;;;;;;;;;;;24.10;52.00;;;;;;3065902;19;5351;-89
2023/08/29 01:10:17;;;;;;;;;;;24.20;52.10;;;;;;3067145;19;4626;-90
2023/08/29 01:11:39;;;;;;;;;;;24.30;52.20;;;;;;3066950;19;5214;-89
2023/08/29 01:13:22;;;;;;;;;;;24.30;52.10;;;;;;3067304;19;5231;-89
2023/08/29 01:14:36;;;;;;;;;;;24.30;52.00;;;;;;2963851;19;2006227;-88
2023/08/29 01:15:36;;;;;;;;;;;24.30;52.10;;;;;;3066897;19;5215;-89
2023/08/29 01:16:40;;;;;;;;;;;24.20;52.10;;;;;;3068051;19;5266;-90
2023/08/29 01:17:46;;;;;;;;;;;24.30;52.20;;;;;;3065983;19;5135;-90
2023/08/29 01:18:46;;;;;;;;;;;24.30;52.20;;;;;;3066393;19;5252;-89
2023/08/29 01:19:53;;;;;;;;;;;24.20;52.00;;;;;;3066939;19;5052;-90
2023/08/29 01:20:59;;;;;;;;;;;24.20;52.10;;;;;;3066611;19;5056;-88
2023/08/29 01:22:23;;;;;;;;;;;24.20;52.00;;;;;;3067071;19;5083;-84
2023/08/29 01:23:39;;;;;;;;;;;24.20;52.10;;;;;;2960106;19;2004526;-90
2023/08/29 01:24:49;;;;;;;;;;;24.20;52.10;;;;;;3065475;19;5130;-90
2023/08/29 01:26:12;;;;;;;;;;;24.20;52.10;;;;;;3060766;19;5287;-83
2023/08/29 01:27:12;;;;;;;;;;;24.20;52.10;;;;;;3059096;19;5036;-80
2023/08/29 01:28:13;;;;;;;;;;;23.90;51.90;;;;;;3058626;19;5106;-90
2023/08/29 01:29:14;;;;;;;;;;;24.20;52.20;;;;;;3065086;19;5181;-85
2023/08/29 01:30:15;;;;;;;;;;;24.10;52.20;;;;;;3063008;19;5094;-90
2023/08/29 01:31:15;;;;;;;;;;;24.20;52.10;;;;;;3060404;19;1140;-88
2023/08/29 01:32:16;;;;;;;;;;;24.20;52.20;;;;;;3058252;19;4623;-87
2023/08/29 01:33:16;;;;;;;;;;;24.20;52.10;;;;;;3057723;19;4648;-80
2023/08/29 01:34:18;;;;;;;;;;;24.30;52.20;;;;;;3057981;19;4644;-81
2023/08/29 01:35:19;;;;;;;;;;;24.80;52.60;;;;;;3058053;19;5154;-79
2023/08/29 01:36:21;;;;;;;;;;;24.20;52.20;;;;;;3057889;19;6047;-81
2023/08/29 01:37:22;;;;;;;;;;;24.20;52.10;;;;;;3057567;19;5264;-87
2023/08/29 01:38:23;;;;;;;;;;;24.20;52.10;;;;;;3057799;19;5177;-84
2023/08/29 01:39:24;;;;;;;;;;;24.20;52.20;;;;;;3058961;19;4716;-80
2023/08/29 01:40:25;;;;;;;;;;;24.20;52.30;;;;;;3057681;19;5264;-87
2023/08/29 01:41:26;;;;;;;;;;;24.20;52.20;;;;;;3057609;19;4783;-81
2023/08/29 01:42:26;;;;;;;;;;;24.20;52.20;;;;;;3057470;19;5138;-81
2023/08/29 01:43:27;;;;;;;;;;;24.20;52.20;;;;;;3057710;19;5000;-81
2023/08/29 01:44:28;;;;;;;;;;;24.20;52.30;;;;;;3059174;19;5055;-82
2023/08/29 01:45:28;;;;;;;;;;;24.20;52.30;;;;;;3059630;19;4627;-86
2023/08/29 01:46:29;;;;;;;;;;;24.20;52.30;;;;;;3059631;19;5161;-83
2023/08/29 01:47:30;;;;;;;;;;;24.10;52.10;;;;;;3061318;19;5153;-79
2023/08/29 01:48:32;;;;;;;;;;;24.20;52.30;;;;;;3060566;19;5143;-78
2023/08/29 01:49:34;;;;;;;;;;;24.10;52.20;;;;;;3056136;19;5491;-89
2023/08/29 01:50:35;;;;;;;;;;;23.90;52.10;;;;;;3057087;19;5170;-82
2023/08/29 01:51:36;;;;;;;;;;;24.10;52.90;;;;;;3056586;19;4847;-84
2023/08/29 01:52:38;;;;;;;;;;;24.10;52.20;;;;;;3057766;19;4606;-88
2023/08/29 01:53:39;;;;;;;;;;;24.10;52.20;;;;;;3057031;19;5228;-88
2023/08/29 01:54:41;;;;;;;;;;;24.20;52.30;;;;;;3056317;19;4671;-84
2023/08/29 01:55:43;;;;;;;;;;;24.20;52.20;;;;;;3056479;19;5119;-83
2023/08/29 01:56:43;;;;;;;;;;;24.10;52.20;;;;;;3056882;19;5184;-84
2023/08/29 01:57:44;;;;;;;;;;;24.30;52.40;;;;;;3056029;19;4709;-82
2023/08/29 01:58:45;;;;;;;;;;;24.10;52.20;;;;;;3055779;19;4624;-79
2023/08/29 01:59:46;;;;;;;;;;;24.10;52.20;;;;;;3056670;19;5125;-80
2023/08/29 02:00:46;;;;;;;;;;;24.20;52.40;;;;;;3054000;19;5040;-89
2023/08/29 02:01:49;;;;;;;;;;;24.20;52.40;;;;;;3055552;19;5226;-86
2023/08/29 02:02:50;;;;;;;;;;;24.10;52.20;;;;;;3056256;19;5363;-85
2023/08/29 02:03:51;;;;;;;;;;;24.10;52.20;;;;;;3056304;19;5092;-81
2023/08/29 02:04:51;;;;;;;;;;;24.10;52.30;;;;;;3055808;19;5164;-80
2023/08/29 02:05:52;;;;;;;;;;;24.10;52.30;;;;;;3055862;19;5325;-86
2023/08/29 02:06:53;;;;;;;;;;;24.10;52.20;;;;;;3057001;19;4606;-85
2023/08/29 02:07:53;;;;;;;;;;;24.10;52.30;;;;;;3057900;19;4598;-85
2023/08/29 02:08:54;;;;;;;;;;;24.10;52.20;;;;;;3057081;19;5174;-83
2023/08/29 02:09:55;;;;;;;;;;;24.10;52.40;;;;;;3057097;19;5171;-87
2023/08/29 02:10:55;;;;;;;;;;;22.90;51.70;;;;;;3056895;19;5120;-85
2023/08/29 02:11:56;;;;;;;;;;;24.10;52.30;;;;;;3058259;19;5147;-82
2023/08/29 02:12:56;;;;;;;;;;;24.10;52.40;;;;;;3059070;19;4608;-88
2023/08/29 02:13:57;;;;;;;;;;;24.10;52.30;;;;;;3058550;19;4582;-83
2023/08/29 02:14:59;;;;;;;;;;;24.10;52.30;;;;;;3058787;19;5148;-80
2023/08/29 02:16:03;;;;;;;;;;;24.10;52.30;;;;;;3058827;19;5155;-79
2023/08/29 02:17:04;;;;;;;;;;;24.10;52.30;;;;;;3059139;19;5182;-84
2023/08/29 02:18:05;;;;;;;;;;;24.10;52.30;;;;;;3058120;19;5713;-82
2023/08/29 02:19:05;;;;;;;;;;;24.10;52.20;;;;;;3058200;19;5143;-81
2023/08/29 02:20:07;;;;;;;;;;;24.40;52.50;;;;;;3052311;19;4812;-79
2023/08/29 02:21:07;;;;;;;;;;;24.10;52.40;;;;;;3054883;19;5140;-85
2023/08/29 02:22:08;;;;;;;;;;;24.10;52.20;;;;;;3057551;19;4667;-82
2023/08/29 02:23:09;;;;;;;;;;;24.10;52.40;;;;;;3058177;19;4664;-80
2023/08/29 02:24:10;;;;;;;;;;;24.30;52.50;;;;;;3057892;19;5192;-82
2023/08/29 02:25:10;;;;;;;;;;;24.10;52.30;;;;;;3058053;19;1218;-87
2023/08/29 02:26:11;;;;;;;;;;;24.00;52.20;;;;;;3057397;19;5656;-83
2023/08/29 02:27:11;;;;;;;;;;;24.00;52.40;;;;;;3057621;19;5165;-80
2023/08/29 02:28:13;;;;;;;;;;;24.10;52.40;;;;;;3057708;19;5238;-78
2023/08/29 02:29:14;;;;;;;;;;;24.10;52.40;;;;;;3058085;19;5219;-85
2023/08/29 02:30:14;;;;;;;;;;;24.10;52.40;;;;;;3058090;19;5217;-83
2023/08/29 02:31:16;;;;;;;;;;;24.10;52.40;;;;;;3058718;19;4584;-87
2023/08/29 02:32:18;;;;;;;;;;;24.10;52.30;;;;;;3057713;19;5050;-82
2023/08/29 02:33:18;;;;;;;;;;;24.10;52.40;;;;;;3057888;19;5137;-80
2023/08/29 02:34:19;;;;;;;;;;;24.10;52.20;;;;;;3058181;19;4658;-80
2023/08/29 02:35:20;;;;;;;;;;;24.10;52.40;;;;;;3058460;19;4626;-84
2023/08/29 02:36:20;;;;;;;;;;;24.10;52.40;;;;;;3058006;19;5350;-83
2023/08/29 02:37:21;;;;;;;;;;;24.60;52.60;;;;;;3058358;19;5327;-80
2023/08/29 02:38:21;;;;;;;;;;;24.10;52.40;;;;;;3058458;19;5070;-82
2023/08/29 02:39:23;;;;;;;;;;;24.10;52.40;;;;;;3057956;19;5088;-86
2023/08/29 02:40:23;;;;;;;;;;;24.10;52.40;;;;;;3058743;19;4590;-86
2023/08/29 02:41:24;;;;;;;;;;;24.10;52.40;;;;;;3058512;19;5224;-86
2023/08/29 02:42:25;;;;;;;;;;;24.50;52.50;;;;;;3059091;19;5080;-85
2023/08/29 02:43:26;;;;;;;;;;;24.00;52.50;;;;;;3058058;19;5211;-86
2023/08/29 02:44:27;;;;;;;;;;;24.00;52.40;;;;;;3057956;19;4977;-85
2023/08/29 02:45:27;;;;;;;;;;;24.00;52.30;;;;;;3058648;19;4630;-82
2023/08/29 02:46:28;;;;;;;;;;;24.10;52.40;;;;;;3057867;19;4600;-79
2023/08/29 02:47:29;;;;;;;;;;;24.00;52.50;;;;;;3057964;19;5216;-88
2023/08/29 02:48:30;;;;;;;;;;;24.10;52.50;;;;;;3058209;19;5097;-84
2023/08/29 02:49:31;;;;;;;;;;;24.00;52.30;;;;;;3058018;19;4714;-80
2023/08/29 02:50:32;;;;;;;;;;;24.00;52.20;;;;;;3057666;19;5145;-83
2023/08/29 02:51:33;;;;;;;;;;;24.30;52.60;;;;;;3058037;19;5037;-88
2023/08/29 02:52:34;;;;;;;;;;;24.00;52.30;;;;;;3058900;19;6108;-86
2023/08/29 02:53:34;;;;;;;;;;;24.00;52.40;;;;;;3058997;19;5153;-83
2023/08/29 02:54:35;;;;;;;;;;;24.00;52.30;;;;;;3059709;19;4609;-86
2023/08/29 02:55:36;;;;;;;;;;;24.00;52.50;;;;;;3057972;19;4651;-84
2023/08/29 02:56:36;;;;;;;;;;;24.00;52.30;;;;;;3057418;19;5141;-79
2023/08/29 02:57:37;;;;;;;;;;;24.00;52.40;;;;;;3058571;19;5236;-79
2023/08/29 02:58:38;;;;;;;;;;;24.00;52.90;;;;;;3057708;19;4582;-84
2023/08/29 02:59:39;;;;;;;;;;;24.10;52.40;;;;;;3056634;19;4581;-81
2023/08/29 03:00:40;;;;;;;;;;;24.00;52.30;;;;;;3056999;19;5273;-81
2023/08/29 03:01:40;;;;;;;;;;;24.00;52.40;;;;;;3058366;19;4617;-78
2023/08/29 03:02:42;;;;;;;;;;;24.00;52.40;;;;;;3058045;19;4584;-82
2023/08/29 03:03:42;;;;;;;;;;;24.00;52.40;;;;;;3057638;19;4601;-84
2023/08/29 03:04:43;;;;;;;;;;;24.00;52.30;;;;;;3058325;19;4812;-79
2023/08/29 03:05:53;;;;;;;;;;;24.00;52.30;;;;;;3058081;19;5120;-83
2023/08/29 03:06:54;;;;;;;;;;;24.00;52.50;;;;;;3058105;19;4748;-81
2023/08/29 03:07:55;;;;;;;;;;;24.00;52.50;;;;;;3058026;19;4964;-80
2023/08/29 03:08:56;;;;;;;;;;;24.00;52.50;;;;;;3058163;19;5148;-82
2023/08/29 03:09:56;;;;;;;;;;;24.00;52.30;;;;;;3058345;19;4587;-82
2023/08/29 03:11:04;;;;;;;;;;;24.00;52.50;;;;;;3058808;19;5100;-88
2023/08/29 03:12:04;;;;;;;;;;;24.00;52.50;;;;;;3058495;19;4849;-86
2023/08/29 03:13:05;;;;;;;;;;;24.00;52.50;;;;;;3058555;19;5093;-86
2023/08/29 03:14:06;;;;;;;;;;;24.00;52.50;;;;;;3056896;19;5177;-81
2023/08/29 03:15:08;;;;;;;;;;;24.00;52.50;;;;;;3058540;19;5102;-80
2023/08/29 03:16:13;;;;;;;;;;;24.00;52.50;;;;;;3058601;19;970;-81
2023/08/29 03:17:14;;;;;;;;;;;24.00;52.50;;;;;;3056301;19;4963;-79
2023/08/29 03:18:14;;;;;;;;;;;24.00;52.50;;;;;;3057847;19;4912;-82
2023/08/29 03:19:15;;;;;;;;;;;24.00;52.60;;;;;;3058153;19;4663;-83
2023/08/29 03:20:16;;;;;;;;;;;23.90;52.40;;;;;;3058697;19;5225;-85
2023/08/29 03:21:17;;;;;;;;;;;23.90;52.40;;;;;;3059685;19;6187;-83
2023/08/29 03:22:17;;;;;;;;;;;24.30;52.60;;;;;;3057527;19;5170;-86
2023/08/29 03:23:18;;;;;;;;;;;23.90;52.50;;;;;;3059522;19;4651;-87
2023/08/29 03:24:19;;;;;;;;;;;24.10;52.40;;;;;;3058189;19;4773;-88
2023/08/29 03:25:21;;;;;;;;;;;24.00;52.40;;;;;;3057853;19;4779;-81
2023/08/29 03:26:21;;;;;;;;;;;24.20;52.60;;;;;;3058525;19;5135;-80
2023/08/29 03:27:22;;;;;;;;;;;23.90;52.30;;;;;;3057159;19;5136;-85
2023/08/29 03:28:24;;;;;;;;;;;24.00;52.50;;;;;;3057609;19;5228;-82
2023/08/29 03:29:24;;;;;;;;;;;23.90;52.30;;;;;;3056536;19;5200;-82
2023/08/29 03:30:26;;;;;;;;;;;24.00;52.50;;;;;;3057288;19;4618;-83
2023/08/29 03:31:27;;;;;;;;;;;23.90;52.40;;;;;;3057966;19;5155;-86
2023/08/29 03:32:27;;;;;;;;;;;23.90;52.50;;;;;;3058341;19;4641;-83
2023/08/29 03:33:28;;;;;;;;;;;23.90;52.30;;;;;;3057444;19;4615;-82
2023/08/29 03:34:28;;;;;;;;;;;24.00;52.40;;;;;;3058001;19;5104;-82
2023/08/29 03:35:29;;;;;;;;;;;23.90;52.30;;;;;;3056476;19;5238;-78
2023/08/29 03:36:30;;;;;;;;;;;23.90;52.40;;;;;;3057137;19;5018;-79
2023/08/29 03:37:31;;;;;;;;;;;23.90;52.40;;;;;;3057544;19;5154;-79
2023/08/29 03:38:36;;;;;;;;;;;23.90;52.30;;;;;;3057021;19;4614;-79
2023/08/29 03:39:36;;;;;;;;;;;23.90;52.30;;;;;;3034757;19;4697;-80
2023/08/29 03:40:37;;;;;;;;;;;24.00;52.30;;;;;;3057127;19;5192;-80
2023/08/29 03:41:38;;;;;;;;;;;23.90;52.40;;;;;;3057387;19;5150;-79
2023/08/29 03:42:39;;;;;;;;;;;23.90;52.40;;;;;;3056517;19;5325;-84
2023/08/29 03:43:39;;;;;;;;;;;23.90;52.40;;;;;;3056595;19;4583;-78
2023/08/29 03:44:40;;;;;;;;;;;24.00;52.50;;;;;;3056783;19;4974;-78
2023/08/29 03:45:41;;;;;;;;;;;24.00;52.20;;;;;;3057550;19;4608;-82
2023/08/29 03:46:42;;;;;;;;;;;24.10;52.10;;;;;;3057071;19;6640;-84
2023/08/29 03:47:43;;;;;;;;;;;24.10;52.20;;;;;;3058272;19;5094;-84
2023/08/29 03:48:43;;;;;;;;;;;24.20;52.20;;;;;;3056581;19;5158;-82
2023/08/29 03:49:44;;;;;;;;;;;24.20;51.70;;;;;;3056366;19;4619;-87
2023/08/29 03:50:45;;;;;;;;;;;24.20;52.50;;;;;;3057516;19;5253;-87
2023/08/29 03:51:45;;;;;;;;;;;24.20;51.50;;;;;;3057500;19;4594;-81
2023/08/29 03:52:46;;;;;;;;;;;24.30;51.80;;;;;;3056604;19;4663;-84
2023/08/29 03:53:46;;;;;;;;;;;24.30;51.70;;;;;;3056021;19;6114;-87
2023/08/29 03:54:47;;;;;;;;;;;24.30;51.60;;;;;;3057745;19;4660;-82
2023/08/29 03:55:48;;;;;;;;;;;24.30;51.80;;;;;;3057498;19;4585;-87
2023/08/29 03:56:49;;;;;;;;;;;24.30;51.40;;;;;;3057154;19;5213;-79
2023/08/29 03:57:49;;;;;;;;;;;24.30;51.70;;;;;;3057638;19;4585;-84
2023/08/29 03:58:50;;;;;;;;;;;24.40;51.70;;;;;;3056402;19;5111;-80
2023/08/29 03:59:50;;;;;;;;;;;25.10;52.30;;;;;;3057024;19;5278;-84
2023/08/29 04:00:52;;;;;;;;;;;24.20;51.70;;;;;;3056322;19;4677;-82
2023/08/29 04:01:53;;;;;;;;;;;24.30;51.90;;;;;;3057866;19;4661;-79
2023/08/29 04:02:54;;;;;;;;;;;24.30;51.90;;;;;;3057672;19;4774;-85
2023/08/29 04:03:54;;;;;;;;;;;24.30;51.80;;;;;;3059745;19;5151;-79
2023/08/29 04:04:55;;;;;;;;;;;24.30;52.00;;;;;;3060810;19;5135;-79
2023/08/29 04:05:56;;;;;;;;;;;24.30;52.10;;;;;;3056130;19;5161;-80
2023/08/29 04:06:57;;;;;;;;;;;24.30;51.90;;;;;;3056362;19;5150;-85
2023/08/29 04:07:57;;;;;;;;;;;24.30;51.90;;;;;;3056946;19;5221;-79
2023/08/29 04:08:59;;;;;;;;;;;24.20;52.10;;;;;;3057166;19;4595;-82
2023/08/29 04:10:00;;;;;;;;;;;24.20;51.90;;;;;;3057262;19;5170;-82
2023/08/29 04:11:02;;;;;;;;;;;24.20;52.10;;;;;;3061378;19;5152;-79
2023/08/29 04:12:03;;;;;;;;;;;25.30;52.80;;;;;;3060115;19;4547;-82
2023/08/29 04:13:05;;;;;;;;;;;24.20;52.10;;;;;;3057702;19;4655;-79
2023/08/29 04:14:06;;;;;;;;;;;24.30;52.20;;;;;;3056646;19;5067;-79
2023/08/29 04:15:07;;;;;;;;;;;24.30;52.20;;;;;;3057730;19;6139;-83
2023/08/29 04:16:08;;;;;;;;;;;24.30;52.00;;;;;;3057446;19;5128;-78
2023/08/29 04:17:09;;;;;;;;;;;24.30;51.60;;;;;;3056285;19;4728;-86
2023/08/29 04:18:10;;;;;;;;;;;24.40;51.80;;;;;;3057097;19;949;-83
2023/08/29 04:19:10;;;;;;;;;;;24.40;51.90;;;;;;3055767;19;4568;-81
2023/08/29 04:20:12;;;;;;;;;;;24.40;51.80;;;;;;3056460;19;5108;-80
2023/08/29 04:21:13;;;;;;;;;;;24.40;52.00;;;;;;3056565;19;4631;-79
2023/08/29 04:22:15;;;;;;;;;;;24.40;51.90;;;;;;3056844;19;5163;-80
2023/08/29 04:23:16;;;;;;;;;;;24.40;51.90;;;;;;3056405;19;5262;-82
2023/08/29 04:24:16;;;;;;;;;;;24.40;51.90;;;;;;3055575;19;5109;-80
2023/08/29 04:25:17;;;;;;;;;;;24.40;51.90;;;;;;3055876;19;5150;-78
2023/08/29 04:26:18;;;;;;;;;;;24.40;51.50;;;;;;3056277;19;5013;-80
2023/08/29 04:27:18;;;;;;;;;;;24.40;51.60;;;;;;3055551;19;5149;-86
2023/08/29 04:28:20;;;;;;;;;;;24.40;51.70;;;;;;3056198;19;4674;-85
2023/08/29 04:29:21;;;;;;;;;;;24.40;51.90;;;;;;3055641;19;5326;-79
2023/08/29 04:30:21;;;;;;;;;;;24.90;52.10;;;;;;3055795;19;5467;-81
2023/08/29 04:31:22;;;;;;;;;;;24.50;51.70;;;;;;3056321;19;5142;-82
2023/08/29 04:32:23;;;;;;;;;;;24.40;51.90;;;;;;3055911;19;4596;-88
2023/08/29 04:33:24;;;;;;;;;;;24.30;51.80;;;;;;3055994;19;4624;-82
2023/08/29 04:34:27;;;;;;;;;;;24.40;51.50;;;;;;3055377;19;5169;-87
2023/08/29 04:35:28;;;;;;;;;;;24.40;51.70;;;;;;3056344;19;5141;-80
2023/08/29 04:36:28;;;;;;;;;;;24.40;51.70;;;;;;3056856;19;4574;-79
2023/08/29 04:37:29;;;;;;;;;;;24.30;51.90;;;;;;3056036;19;4595;-79
2023/08/29 04:38:31;;;;;;;;;;;24.30;51.80;;;;;;3055241;19;4582;-79
2023/08/29 04:39:32;;;;;;;;;;;24.30;51.80;;;;;;3055906;19;5281;-81
2023/08/29 04:40:35;;;;;;;;;;;24.40;51.90;;;;;;3055997;19;4598;-79
2023/08/29 04:41:36;;;;;;;;;;;24.30;51.80;;;;;;3056456;19;5090;-79
2023/08/29 04:42:40;;;;;;;;;;;24.30;51.80;;;;;;3056274;19;5230;-82
2023/08/29 04:43:41;;;;;;;;;;;24.30;51.80;;;;;;3055663;19;5166;-80
2023/08/29 04:44:42;;;;;;;;;;;24.30;52.00;;;;;;3055652;19;5028;-79
2023/08/29 04:45:44;;;;;;;;;;;24.30;51.90;;;;;;3057659;19;4601;-82
2023/08/29 04:46:45;;;;;;;;;;;24.30;52.10;;;;;;3056782;19;5061;-80
2023/08/29 04:47:45;;;;;;;;;;;24.90;51.90;;;;;;3055571;19;5150;-84
2023/08/29 04:48:46;;;;;;;;;;;25.20;51.90;;;;;;3056679;19;5154;-86
2023/08/29 04:49:47;;;;;;;;;;;24.50;51.70;;;;;;3056771;19;5183;-80
2023/08/29 04:50:48;;;;;;;;;;;24.50;51.40;;;;;;3057456;19;5451;-79
2023/08/29 04:51:49;;;;;;;;;;;24.50;51.30;;;;;;3056475;19;5066;-79
2023/08/29 04:52:53;;;;;;;;;;;24.50;51.40;;;;;;3056418;19;5817;-78
2023/08/29 04:53:54;;;;;;;;;;;24.50;51.60;;;;;;3056338;19;5270;-79
2023/08/29 04:54:54;;;;;;;;;;;24.50;51.40;;;;;;3056254;19;5021;-83
2023/08/29 04:55:59;;;;;;;;;;;24.50;51.60;;;;;;3055711;19;5311;-79
2023/08/29 04:57:00;;;;;;;;;;;24.50;51.60;;;;;;3055509;19;5713;-79
2023/08/29 04:58:00;;;;;;;;;;;25.20;51.90;;;;;;3056117;19;4567;-84
2023/08/29 04:59:01;;;;;;;;;;;24.50;51.60;;;;;;3054736;19;5136;-78
2023/08/29 05:00:02;;;;;;;;;;;25.00;51.70;;;;;;3056922;19;5024;-79
2023/08/29 05:01:03;;;;;;;;;;;24.50;51.80;;;;;;3055014;19;5106;-80
2023/08/29 05:02:04;;;;;;;;;;;24.50;51.80;;;;;;3055842;19;5569;-79
2023/08/29 05:03:05;;;;;;;;;;;24.50;51.70;;;;;;3055273;19;5072;-83
2023/08/29 05:04:06;;;;;;;;;;;24.50;51.50;;;;;;3053745;19;20807;-79
2023/08/29 05:05:07;;;;;;;;;;;24.50;51.50;;;;;;3054189;19;4605;-79
2023/08/29 05:06:07;;;;;;;;;;;24.50;51.60;;;;;;3056581;19;5033;-84
2023/08/29 05:07:09;;;;;;;;;;;24.50;51.20;;;;;;3056288;19;6187;-89
2023/08/29 05:08:09;;;;;;;;;;;25.90;52.50;;;;;;3057427;19;4624;-87
2023/08/29 05:09:11;;;;;;;;;;;24.50;51.60;;;;;;3058553;19;1838;-82
2023/08/29 05:10:11;;;;;;;;;;;24.40;50.80;;;;;;3056689;19;5188;-86
2023/08/29 05:11:12;;;;;;;;;;;24.50;51.50;;;;;;3058027;19;5153;-87
2023/08/29 05:12:13;;;;;;;;;;;24.50;51.20;;;;;;3058649;19;5151;-83
2023/08/29 05:13:15;;;;;;;;;;;24.50;51.40;;;;;;3057578;19;4588;-87
2023/08/29 05:14:15;;;;;;;;;;;24.40;51.60;;;;;;3056217;19;5204;-85
2023/08/29 05:15:16;;;;;;;;;;;24.40;51.60;;;;;;3056509;19;5113;-86
2023/08/29 05:16:17;;;;;;;;;;;24.40;51.60;;;;;;3057804;19;5145;-81
2023/08/29 05:17:17;;;;;;;;;;;24.40;51.70;;;;;;3057320;19;5277;-88
2023/08/29 05:18:18;;;;;;;;;;;24.40;51.70;;;;;;3056194;19;5119;-89
2023/08/29 05:19:19;;;;;;;;;;;24.40;51.80;;;;;;3055479;19;5822;-86
2023/08/29 05:20:19;;;;;;;;;;;24.40;51.60;;;;;;3055870;19;5124;-83
2023/08/29 05:21:20;;;;;;;;;;;24.40;51.70;;;;;;3056857;19;5621;-83
2023/08/29 05:22:20;;;;;;;;;;;24.40;51.80;;;;;;3057005;19;4677;-87
2023/08/29 05:23:22;;;;;;;;;;;24.50;51.90;;;;;;3057237;19;5082;-81
2023/08/29 05:24:22;;;;;;;;;;;24.50;52.20;;;;;;3056892;19;5764;-88
2023/08/29 05:25:23;;;;;;;;;;;24.50;52.50;;;;;;3056926;19;5154;-81
2023/08/29 05:26:24;;;;;;;;;;;24.70;52.20;;;;;;3056462;19;4637;-81
2023/08/29 05:27:24;;;;;;;;;;;25.20;51.90;;;;;;3057093;19;5152;-83
2023/08/29 05:28:25;;;;;;;;;;;24.40;51.70;;;;;;3057002;19;6203;-89
2023/08/29 05:29:26;;;;;;;;;;;24.70;51.50;;;;;;3056370;19;5210;-87
2023/08/29 05:30:27;;;;;;;;;;;24.60;51.80;;;;;;3056690;19;5221;-79
2023/08/29 05:31:27;;;;;;;;;;;24.60;51.60;;;;;;3056604;19;5089;-84
2023/08/29 05:32:28;;;;;;;;;;;24.60;51.70;;;;;;3055997;19;4690;-85
2023/08/29 05:33:29;;;;;;;;;;;24.60;51.70;;;;;;3056614;19;5170;-81
2023/08/29 05:34:30;;;;;;;;;;;24.60;51.70;;;;;;3057416;19;5217;-80
2023/08/29 05:35:31;;;;;;;;;;;24.60;51.70;;;;;;3056797;19;4772;-86
2023/08/29 05:36:31;;;;;;;;;;;24.60;51.70;;;;;;3056097;19;5126;-82
2023/08/29 05:37:32;;;;;;;;;;;24.60;51.60;;;;;;3055659;19;5164;-80
2023/08/29 05:38:33;;;;;;;;;;;24.70;52.00;;;;;;3055312;19;5116;-83
2023/08/29 05:39:34;;;;;;;;;;;24.60;51.60;;;;;;3056825;19;4596;-88
2023/08/29 05:40:34;;;;;;;;;;;24.60;51.60;;;;;;3057160;19;5313;-86
2023/08/29 05:41:35;;;;;;;;;;;24.60;51.60;;;;;;3056797;19;4594;-89
2023/08/29 05:42:35;;;;;;;;;;;24.60;51.80;;;;;;3055731;19;5193;-81
2023/08/29 05:43:36;;;;;;;;;;;24.60;51.80;;;;;;3056991;19;5083;-86
2023/08/29 05:44:38;;;;;;;;;;;24.60;51.80;;;;;;3056078;19;4627;-83
2023/08/29 05:45:41;;;;;;;;;;;24.60;51.70;;;;;;3055828;19;5114;-82
2023/08/29 05:46:41;;;;;;;;;;;24.60;51.90;;;;;;3056777;19;5154;-82
2023/08/29 05:47:42;;;;;;;;;;;24.60;51.80;;;;;;3059033;19;5378;-83
2023/08/29 05:48:42;;;;;;;;;;;24.60;51.80;;;;;;3059071;19;5126;-84
2023/08/29 05:49:43;;;;;;;;;;;24.60;51.70;;;;;;3057533;19;5307;-89
2023/08/29 05:50:44;;;;;;;;;;;24.60;51.70;;;;;;3059583;19;5250;-83
2023/08/29 05:51:45;;;;;;;;;;;24.60;51.80;;;;;;3059217;19;4586;-84
2023/08/29 05:52:47;;;;;;;;;;;24.60;51.80;;;;;;3058742;19;5004;-81
2023/08/29 05:53:47;;;;;;;;;;;24.60;51.60;;;;;;3058798;19;5111;-90
2023/08/29 05:54:48;;;;;;;;;;;24.60;51.60;;;;;;3057122;19;4589;-87
2023/08/29 05:55:49;;;;;;;;;;;24.60;52.00;;;;;;3058810;19;5085;-83
2023/08/29 05:56:49;;;;;;;;;;;25.00;51.80;;;;;;3059526;19;5161;-85
2023/08/29 05:57:50;;;;;;;;;;;24.50;51.70;;;;;;3059876;19;5124;-82
2023/08/29 05:58:51;;;;;;;;;;;24.50;51.50;;;;;;3057388;19;5087;-80
2023/08/29 05:59:53;;;;;;;;;;;24.50;51.50;;;;;;3057908;19;5184;-84
2023/08/29 06:00:55;;;;;;;;;;;24.50;51.70;;;;;;3057872;19;5278;-80
2023/08/29 06:01:56;;;;;;;;;;;24.50;51.60;;;;;;3058510;19;5624;-90
2023/08/29 06:02:56;;;;;;;;;;;24.50;51.60;;;;;;3058446;19;5073;-87
2023/08/29 06:03:58;;;;;;;;;;;24.40;51.60;;;;;;3058144;19;5018;-82
2023/08/29 06:04:58;;;;;;;;;;;24.50;51.70;;;;;;3058498;19;5098;-86
2023/08/29 06:05:59;;;;;;;;;;;24.60;51.80;;;;;;3058847;19;5164;-93
2023/08/29 06:07:00;;;;;;;;;;;23.80;51.40;;;;;;3057982;19;5162;-86
2023/08/29 06:08:01;;;;;;;;;;;24.50;51.70;;;;;;3059176;19;4596;-88
2023/08/29 06:09:02;;;;;;;;;;;24.50;51.90;;;;;;3058442;19;4654;-85
2023/08/29 06:10:05;;;;;;;;;;;24.50;51.80;;;;;;3058501;19;4641;-84
2023/08/29 06:11:06;;;;;;;;;;;24.50;51.90;;;;;;3057740;19;7730;-82
2023/08/29 06:12:07;;;;;;;;;;;24.10;51.50;;;;;;3057834;19;5083;-84
2023/08/29 06:13:07;;;;;;;;;;;24.50;52.30;;;;;;3038472;19;5742;-85
2023/08/29 06:14:08;;;;;;;;;;;24.70;52.50;;;;;;3059309;19;6054;-82
2023/08/29 06:15:09;;;;;;;;;;;24.70;52.10;;;;;;3058187;19;5151;-83
2023/08/29 06:16:09;;;;;;;;;;;24.70;52.20;;;;;;3058500;19;1443;-82
2023/08/29 06:17:11;;;;;;;;;;;24.80;51.90;;;;;;3058380;19;5128;-85
2023/08/29 06:18:12;;;;;;;;;;;24.70;51.80;;;;;;3058657;19;5168;-82
2023/08/29 06:19:12;;;;;;;;;;;24.70;51.70;;;;;;3058649;19;5079;-82
2023/08/29 06:20:13;;;;;;;;;;;24.80;51.90;;;;;;3059217;19;5259;-88
2023/08/29 06:21:14;;;;;;;;;;;24.70;52.10;;;;;;3057559;19;4639;-88
2023/08/29 06:22:14;;;;;;;;;;;24.70;52.10;;;;;;3058834;19;5158;-82
2023/08/29 06:23:15;;;;;;;;;;;24.30;51.40;;;;;;3058318;19;5098;-82
2023/08/29 06:24:16;;;;;;;;;;;24.70;51.80;;;;;;3059315;19;908;-81
2023/08/29 06:25:16;;;;;;;;;;;24.70;51.90;;;;;;3058002;19;4996;-88
2023/08/29 06:26:17;;;;;;;;;;;24.70;51.90;;;;;;3059232;19;5159;-85
2023/08/29 06:27:18;;;;;;;;;;;24.70;52.00;;;;;;3058383;19;4575;-84
2023/08/29 06:28:18;;;;;;;;;;;24.70;52.00;;;;;;3057442;19;5140;-84
2023/08/29 06:29:19;;;;;;;;;;;24.70;52.00;;;;;;3058793;19;5289;-81
2023/08/29 06:30:20;;;;;;;;;;;24.70;52.10;;;;;;3058549;19;5205;-83
2023/08/29 06:31:20;;;;;;;;;;;24.70;52.00;;;;;;3057560;19;5213;-83
2023/08/29 06:32:21;;;;;;;;;;;24.70;51.90;;;;;;3058393;19;5275;-83
2023/08/29 06:33:21;;;;;;;;;;;24.70;52.00;;;;;;3058874;19;5354;-85
2023/08/29 06:34:23;;;;;;;;;;;24.70;52.00;;;;;;3059419;19;5196;-81
2023/08/29 06:35:25;;;;;;;;;;;24.60;52.00;;;;;;3057920;19;5155;-84
2023/08/29 06:36:26;;;;;;;;;;;24.70;52.00;;;;;;3058548;19;5154;-83
2023/08/29 06:37:28;;;;;;;;;;;25.10;52.50;;;;;;3058300;19;4671;-83
2023/08/29 06:38:33;;;;;;;;;;;24.70;51.80;;;;;;3059585;19;4589;-83
2023/08/29 06:39:34;;;;;;;;;;;24.60;52.10;;;;;;3058326;19;5495;-83
2023/08/29 06:40:35;;;;;;;;;;;24.70;52.10;;;;;;3059231;19;5190;-86
2023/08/29 06:41:35;;;;;;;;;;;24.50;51.90;;;;;;3059604;19;6106;-87
2023/08/29 06:42:37;;;;;;;;;;;24.60;51.90;;;;;;3058766;19;4638;-83
2023/08/29 06:43:38;;;;;;;;;;;24.70;52.10;;;;;;3058686;19;5174;-85
2023/08/29 06:44:38;;;;;;;;;;;24.70;52.40;;;;;;3056776;19;5237;-85
2023/08/29 06:45:39;;;;;;;;;;;24.60;52.00;;;;;;3058840;19;5064;-83
2023/08/29 06:46:40;;;;;;;;;;;24.60;51.90;;;;;;3058624;19;4771;-86
2023/08/29 06:47:40;;;;;;;;;;;24.60;52.10;;;;;;3058426;19;5150;-82
2023/08/29 06:48:46;;;;;;;;;;;24.60;52.70;;;;;;3058028;19;5057;-85
2023/08/29 06:49:47;;;;;;;;;;;24.60;52.10;;;;;;3057577;19;5088;-85
2023/08/29 06:50:48;;;;;;;;;;;24.60;52.00;;;;;;3058235;19;4579;-86
2023/08/29 06:51:50;;;;;;;;;;;24.80;52.30;;;;;;3057602;19;4715;-81
2023/08/29 06:52:50;;;;;;;;;;;24.60;52.30;;;;;;3056904;19;5063;-82
2023/08/29 06:53:51;;;;;;;;;;;24.70;52.20;;;;;;3057684;19;4609;-82
2023/08/29 06:54:52;;;;;;;;;;;24.60;52.10;;;;;;3056764;19;5191;-87
2023/08/29 06:55:52;;;;;;;;;;;24.60;52.20;;;;;;3056989;19;5230;-83
2023/08/29 06:56:53;;;;;;;;;;;24.60;52.20;;;;;;3058762;19;5174;-89
2023/08/29 06:57:54;;;;;;;;;;;24.60;52.10;;;;;;3056526;19;4606;-82
2023/08/29 06:58:54;;;;;;;;;;;24.60;52.40;;;;;;3057811;19;5186;-82
2023/08/29 06:59:55;;;;;;;;;;;24.60;52.00;;;;;;3058470;19;4625;-81
2023/08/29 07:00:56;;;;;;;;;;;24.60;52.10;;;;;;3035024;19;5188;-82
2023/08/29 07:01:56;;;;;;;;;;;24.60;52.20;;;;;;3057523;19;5014;-85
2023/08/29 07:02:58;;;;;;;;;;;24.60;51.90;;;;;;3055984;19;5006;-89
2023/08/29 07:03:59;;;;;;;;;;;24.60;52.20;;;;;;3056152;19;5676;-84